sensor_id;sensor_type;location;lat;lon;timestamp;P1;P2;P0
62631;PMS5003;48703;51.248;-0.546;2023-08-06T00:01:17;4.59;4.03;
62631;PMS5003;48703;51.248;-0.546;2023-08-06T00:04:19;3.50;3.50;
62631;PMS5003;48703;51.248;-0.546;2023-08-06T00:07:21;3.57;2.80;
62631;PMS5003;48703;51.248;-0.546;2023-08-06T00:10:22;4.13;3.46;
62631;PMS5003;48703;51.248;-0.546;2023-08-06T00:13:24;4.11;3.86;
62631;PMS5003;48703;51.248;-0.546;2023-08-06T00:16:25;3.70;3.70;
62631;PMS5003;48703;51.248;-0.546;2023-08-06T00:19:27;4.09;3.40;
62631;PMS5003;48703;51.248;-0.546;2023-08-06T00:22:28;5.54;4.40;
62631;PMS5003;48703;51.248;-0.546;2023-08-06T00:25:30;4.67;4.34;
62631;PMS5003;48703;51.248;-0.546;2023-08-06T00:28:31;4.46;3.74;
62631;PMS5003;48703;51.248;-0.546;2023-08-06T00:31:33;4.03;3.54;
62631;PMS5003;48703;51.248;-0.546;2023-08-06T00:34:34;4.37;3.51;
62631;PMS5003;48703;51.248;-0.546;2023-08-06T00:37:36;5.29;4.83;
62631;PMS5003;48703;51.248;-0.546;2023-08-06T00:40:37;5.23;3.76;
62631;PMS5003;48703;51.248;-0.546;2023-08-06T00:43:39;5.59;4.39;
62631;PMS5003;48703;51.248;-0.546;2023-08-06T00:46:41;4.09;4.09;
62631;PMS5003;48703;51.248;-0.546;2023-08-06T00:49:42;5.91;4.11;
62631;PMS5003;48703;51.248;-0.546;2023-08-06T00:52:44;5.34;4.90;
62631;PMS5003;48703;51.248;-0.546;2023-08-06T00:55:45;5.67;4.71;
62631;PMS5003;48703;51.248;-0.546;2023-08-06T00:58:47;3.96;3.56;
62631;PMS5003;48703;51.248;-0.546;2023-08-06T01:01:48;4.44;4.21;
62631;PMS5003;48703;51.248;-0.546;2023-08-06T01:04:50;5.24;4.61;
62631;PMS5003;48703;51.248;-0.546;2023-08-06T01:07:57;4.71;4.13;
62631;PMS5003;48703;51.248;-0.546;2023-08-06T01:10:56;5.34;4.24;
62631;PMS5003;48703;51.248;-0.546;2023-08-06T01:13:57;3.53;3.17;
62631;PMS5003;48703;51.248;-0.546;2023-08-06T01:16:56;3.90;3.83;
62631;PMS5003;48703;51.248;-0.546;2023-08-06T01:19:58;3.79;3.11;
62631;PMS5003;48703;51.248;-0.546;2023-08-06T01:22:59;3.73;3.69;
62631;PMS5003;48703;51.248;-0.546;2023-08-06T01:26:02;4.73;3.53;
62631;PMS5003;48703;51.248;-0.546;2023-08-06T01:29:05;3.21;2.97;
62631;PMS5003;48703;51.248;-0.546;2023-08-06T01:32:04;4.10;3.63;
62631;PMS5003;48703;51.248;-0.546;2023-08-06T01:35:06;3.46;3.41;
62631;PMS5003;48703;51.248;-0.546;2023-08-06T01:38:07;4.90;4.17;
62631;PMS5003;48703;51.248;-0.546;2023-08-06T01:41:08;5.97;4.96;
62631;PMS5003;48703;51.248;-0.546;2023-08-06T01:44:10;4.70;4.27;
62631;PMS5003;48703;51.248;-0.546;2023-08-06T01:47:12;4.31;4.01;
62631;PMS5003;48703;51.248;-0.546;2023-08-06T01:50:13;4.56;4.39;
62631;PMS5003;48703;51.248;-0.546;2023-08-06T01:53:15;4.29;3.73;
62631;PMS5003;48703;51.248;-0.546;2023-08-06T01:56:16;3.40;2.97;
62631;PMS5003;48703;51.248;-0.546;2023-08-06T01:59:18;5.17;3.87;
62631;PMS5003;48703;51.248;-0.546;2023-08-06T02:02:19;4.89;3.73;
62631;PMS5003;48703;51.248;-0.546;2023-08-06T02:05:21;4.71;4.16;
62631;PMS5003;48703;51.248;-0.546;2023-08-06T02:08:23;4.66;3.57;
62631;PMS5003;48703;51.248;-0.546;2023-08-06T02:11:24;5.24;5.11;
62631;PMS5003;48703;51.248;-0.546;2023-08-06T02:14:26;4.36;3.93;
62631;PMS5003;48703;51.248;-0.546;2023-08-06T02:17:27;4.81;3.81;
62631;PMS5003;48703;51.248;-0.546;2023-08-06T02:20:30;5.34;5.13;
62631;PMS5003;48703;51.248;-0.546;2023-08-06T02:23:31;4.54;4.24;
62631;PMS5003;48703;51.248;-0.546;2023-08-06T02:26:33;3.87;3.87;
62631;PMS5003;48703;51.248;-0.546;2023-08-06T02:29:34;4.10;3.80;
62631;PMS5003;48703;51.248;-0.546;2023-08-06T02:32:36;5.40;3.80;
62631;PMS5003;48703;51.248;-0.546;2023-08-06T02:35:37;4.97;3.99;
62631;PMS5003;48703;51.248;-0.546;2023-08-06T02:38:39;3.73;3.39;
62631;PMS5003;48703;51.248;-0.546;2023-08-06T02:41:41;4.24;4.24;
62631;PMS5003;48703;51.248;-0.546;2023-08-06T02:44:42;6.23;5.26;
62631;PMS5003;48703;51.248;-0.546;2023-08-06T02:47:44;3.74;3.74;
62631;PMS5003;48703;51.248;-0.546;2023-08-06T02:50:45;6.49;5.11;
62631;PMS5003;48703;51.248;-0.546;2023-08-06T02:53:47;5.23;3.59;
62631;PMS5003;48703;51.248;-0.546;2023-08-06T02:56:48;6.04;5.26;
62631;PMS5003;48703;51.248;-0.546;2023-08-06T02:59:50;6.71;4.86;
62631;PMS5003;48703;51.248;-0.546;2023-08-06T03:02:52;5.97;5.06;
62631;PMS5003;48703;51.248;-0.546;2023-08-06T03:05:53;4.43;4.04;
62631;PMS5003;48703;51.248;-0.546;2023-08-06T03:08:55;4.87;4.69;
62631;PMS5003;48703;51.248;-0.546;2023-08-06T03:11:56;4.64;4.19;
62631;PMS5003;48703;51.248;-0.546;2023-08-06T03:14:58;5.19;4.84;
62631;PMS5003;48703;51.248;-0.546;2023-08-06T03:17:59;5.30;4.73;
62631;PMS5003;48703;51.248;-0.546;2023-08-06T03:21:01;5.20;5.20;
62631;PMS5003;48703;51.248;-0.546;2023-08-06T03:24:02;5.19;4.66;
62631;PMS5003;48703;51.248;-0.546;2023-08-06T03:27:04;5.17;4.26;
62631;PMS5003;48703;51.248;-0.546;2023-08-06T03:30:06;3.37;3.27;
62631;PMS5003;48703;51.248;-0.546;2023-08-06T03:33:07;5.46;4.73;
62631;PMS5003;48703;51.248;-0.546;2023-08-06T03:36:09;6.46;5.21;
62631;PMS5003;48703;51.248;-0.546;2023-08-06T03:39:10;4.74;4.74;
62631;PMS5003;48703;51.248;-0.546;2023-08-06T03:42:12;5.91;5.60;
62631;PMS5003;48703;51.248;-0.546;2023-08-06T03:45:14;6.13;4.97;
62631;PMS5003;48703;51.248;-0.546;2023-08-06T03:48:15;6.47;5.61;
62631;PMS5003;48703;51.248;-0.546;2023-08-06T03:51:17;6.59;5.79;
62631;PMS5003;48703;51.248;-0.546;2023-08-06T03:54:19;5.74;4.91;
62631;PMS5003;48703;51.248;-0.546;2023-08-06T03:57:20;5.94;5.71;
62631;PMS5003;48703;51.248;-0.546;2023-08-06T04:00:22;6.53;5.13;
62631;PMS5003;48703;51.248;-0.546;2023-08-06T04:03:23;4.37;4.00;
62631;PMS5003;48703;51.248;-0.546;2023-08-06T04:06:24;7.04;5.80;
62631;PMS5003;48703;51.248;-0.546;2023-08-06T04:09:27;6.49;5.67;
62631;PMS5003;48703;51.248;-0.546;2023-08-06T04:12:27;5.30;5.07;
62631;PMS5003;48703;51.248;-0.546;2023-08-06T04:15:29;4.84;4.59;
62631;PMS5003;48703;51.248;-0.546;2023-08-06T04:18:31;5.99;5.80;
62631;PMS5003;48703;51.248;-0.546;2023-08-06T04:21:32;5.67;4.51;
62631;PMS5003;48703;51.248;-0.546;2023-08-06T04:24:34;8.13;6.63;
62631;PMS5003;48703;51.248;-0.546;2023-08-06T04:27:35;5.96;4.59;
62631;PMS5003;48703;51.248;-0.546;2023-08-06T04:30:37;6.54;4.96;
62631;PMS5003;48703;51.248;-0.546;2023-08-06T04:33:38;6.73;5.24;
62631;PMS5003;48703;51.248;-0.546;2023-08-06T04:36:40;6.44;5.17;
62631;PMS5003;48703;51.248;-0.546;2023-08-06T04:39:42;5.30;4.51;
62631;PMS5003;48703;51.248;-0.546;2023-08-06T04:42:43;5.84;5.53;
62631;PMS5003;48703;51.248;-0.546;2023-08-06T04:45:46;5.66;5.24;
62631;PMS5003;48703;51.248;-0.546;2023-08-06T04:48:46;5.66;5.09;
62631;PMS5003;48703;51.248;-0.546;2023-08-06T04:51:48;6.49;5.51;
62631;PMS5003;48703;51.248;-0.546;2023-08-06T04:54:50;5.63;4.87;
62631;PMS5003;48703;51.248;-0.546;2023-08-06T04:57:51;5.56;4.16;
62631;PMS5003;48703;51.248;-0.546;2023-08-06T05:00:53;4.59;4.30;
62631;PMS5003;48703;51.248;-0.546;2023-08-06T05:03:54;5.14;4.69;
62631;PMS5003;48703;51.248;-0.546;2023-08-06T05:06:56;5.54;4.69;
62631;PMS5003;48703;51.248;-0.546;2023-08-06T05:09:58;4.36;4.16;
62631;PMS5003;48703;51.248;-0.546;2023-08-06T05:12:59;5.43;4.41;
62631;PMS5003;48703;51.248;-0.546;2023-08-06T05:16:01;6.49;5.30;
62631;PMS5003;48703;51.248;-0.546;2023-08-06T05:19:02;5.07;4.57;
62631;PMS5003;48703;51.248;-0.546;2023-08-06T05:22:04;5.04;4.19;
62631;PMS5003;48703;51.248;-0.546;2023-08-06T05:25:06;5.63;4.76;
62631;PMS5003;48703;51.248;-0.546;2023-08-06T05:28:07;5.66;4.41;
62631;PMS5003;48703;51.248;-0.546;2023-08-06T05:31:09;4.67;4.67;
62631;PMS5003;48703;51.248;-0.546;2023-08-06T05:34:11;4.37;3.86;
62631;PMS5003;48703;51.248;-0.546;2023-08-06T05:37:12;5.44;4.44;
62631;PMS5003;48703;51.248;-0.546;2023-08-06T05:40:14;5.69;5.00;
62631;PMS5003;48703;51.248;-0.546;2023-08-06T05:43:15;4.84;4.84;
62631;PMS5003;48703;51.248;-0.546;2023-08-06T05:46:17;4.57;4.31;
62631;PMS5003;48703;51.248;-0.546;2023-08-06T05:49:18;4.64;4.33;
62631;PMS5003;48703;51.248;-0.546;2023-08-06T05:52:20;5.47;4.87;
62631;PMS5003;48703;51.248;-0.546;2023-08-06T05:55:22;6.01;5.03;
62631;PMS5003;48703;51.248;-0.546;2023-08-06T05:58:23;5.69;4.96;
62631;PMS5003;48703;51.248;-0.546;2023-08-06T06:01:25;5.10;4.53;
62631;PMS5003;48703;51.248;-0.546;2023-08-06T06:04:27;4.64;4.63;
62631;PMS5003;48703;51.248;-0.546;2023-08-06T06:07:28;6.41;5.34;
62631;PMS5003;48703;51.248;-0.546;2023-08-06T06:10:29;5.77;4.99;
62631;PMS5003;48703;51.248;-0.546;2023-08-06T06:13:31;4.84;4.24;
62631;PMS5003;48703;51.248;-0.546;2023-08-06T06:16:33;5.71;4.81;
62631;PMS5003;48703;51.248;-0.546;2023-08-06T06:19:34;4.09;3.50;
62631;PMS5003;48703;51.248;-0.546;2023-08-06T06:22:35;5.33;5.09;
62631;PMS5003;48703;51.248;-0.546;2023-08-06T06:25:41;7.54;6.07;
62631;PMS5003;48703;51.248;-0.546;2023-08-06T06:28:39;5.19;4.81;
62631;PMS5003;48703;51.248;-0.546;2023-08-06T06:31:40;5.31;4.51;
62631;PMS5003;48703;51.248;-0.546;2023-08-06T06:34:42;4.90;4.79;
62631;PMS5003;48703;51.248;-0.546;2023-08-06T06:37:43;5.36;4.27;
62631;PMS5003;48703;51.248;-0.546;2023-08-06T06:40:52;4.87;4.07;
62631;PMS5003;48703;51.248;-0.546;2023-08-06T06:43:47;4.41;3.96;
62631;PMS5003;48703;51.248;-0.546;2023-08-06T06:46:48;4.81;4.31;
62631;PMS5003;48703;51.248;-0.546;2023-08-06T06:49:50;6.51;5.11;
62631;PMS5003;48703;51.248;-0.546;2023-08-06T06:52:51;3.60;3.60;
62631;PMS5003;48703;51.248;-0.546;2023-08-06T06:55:53;4.14;4.03;
62631;PMS5003;48703;51.248;-0.546;2023-08-06T06:58:55;4.59;4.11;
62631;PMS5003;48703;51.248;-0.546;2023-08-06T07:01:56;5.60;4.73;
62631;PMS5003;48703;51.248;-0.546;2023-08-06T07:04:58;4.50;3.49;
62631;PMS5003;48703;51.248;-0.546;2023-08-06T07:07:59;4.83;3.93;
62631;PMS5003;48703;51.248;-0.546;2023-08-06T07:11:01;5.67;4.84;
62631;PMS5003;48703;51.248;-0.546;2023-08-06T07:14:03;5.51;3.49;
62631;PMS5003;48703;51.248;-0.546;2023-08-06T07:17:05;4.41;3.89;
62631;PMS5003;48703;51.248;-0.546;2023-08-06T07:20:06;4.17;3.89;
62631;PMS5003;48703;51.248;-0.546;2023-08-06T07:23:07;5.37;5.10;
62631;PMS5003;48703;51.248;-0.546;2023-08-06T07:26:09;5.97;5.07;
62631;PMS5003;48703;51.248;-0.546;2023-08-06T07:29:11;5.19;4.86;
62631;PMS5003;48703;51.248;-0.546;2023-08-06T07:32:12;5.74;4.73;
62631;PMS5003;48703;51.248;-0.546;2023-08-06T07:35:13;3.51;3.51;
62631;PMS5003;48703;51.248;-0.546;2023-08-06T07:38:15;5.47;5.47;
62631;PMS5003;48703;51.248;-0.546;2023-08-06T07:41:16;5.84;4.34;
62631;PMS5003;48703;51.248;-0.546;2023-08-06T07:44:18;4.14;3.97;
62631;PMS5003;48703;51.248;-0.546;2023-08-06T07:47:20;5.07;4.64;
62631;PMS5003;48703;51.248;-0.546;2023-08-06T07:50:21;5.94;4.99;
62631;PMS5003;48703;51.248;-0.546;2023-08-06T07:53:23;3.77;3.50;
62631;PMS5003;48703;51.248;-0.546;2023-08-06T07:56:24;5.30;4.53;
62631;PMS5003;48703;51.248;-0.546;2023-08-06T07:59:25;5.56;4.30;
62631;PMS5003;48703;51.248;-0.546;2023-08-06T08:02:27;4.50;4.09;
62631;PMS5003;48703;51.248;-0.546;2023-08-06T08:05:28;3.73;3.47;
62631;PMS5003;48703;51.248;-0.546;2023-08-06T08:08:30;3.77;3.56;
62631;PMS5003;48703;51.248;-0.546;2023-08-06T08:11:31;5.21;4.56;
62631;PMS5003;48703;51.248;-0.546;2023-08-06T08:14:33;4.93;4.11;
62631;PMS5003;48703;51.248;-0.546;2023-08-06T08:17:34;4.29;3.84;
62631;PMS5003;48703;51.248;-0.546;2023-08-06T08:20:36;4.06;3.33;
62631;PMS5003;48703;51.248;-0.546;2023-08-06T08:23:38;4.07;4.07;
62631;PMS5003;48703;51.248;-0.546;2023-08-06T08:26:39;3.73;3.73;
62631;PMS5003;48703;51.248;-0.546;2023-08-06T08:29:41;3.29;2.64;
62631;PMS5003;48703;51.248;-0.546;2023-08-06T08:32:42;4.39;3.53;
62631;PMS5003;48703;51.248;-0.546;2023-08-06T08:35:45;3.96;3.83;
62631;PMS5003;48703;51.248;-0.546;2023-08-06T08:38:45;3.14;3.07;
62631;PMS5003;48703;51.248;-0.546;2023-08-06T08:41:47;3.10;3.10;
62631;PMS5003;48703;51.248;-0.546;2023-08-06T08:44:48;4.63;4.03;
62631;PMS5003;48703;51.248;-0.546;2023-08-06T08:47:50;3.29;3.11;
62631;PMS5003;48703;51.248;-0.546;2023-08-06T08:50:51;3.80;3.30;
62631;PMS5003;48703;51.248;-0.546;2023-08-06T08:53:53;3.54;3.20;
62631;PMS5003;48703;51.248;-0.546;2023-08-06T08:56:54;3.21;3.21;
62631;PMS5003;48703;51.248;-0.546;2023-08-06T08:59:56;4.79;3.44;
62631;PMS5003;48703;51.248;-0.546;2023-08-06T09:02:58;5.03;3.66;
62631;PMS5003;48703;51.248;-0.546;2023-08-06T09:05:59;4.54;4.54;
62631;PMS5003;48703;51.248;-0.546;2023-08-06T09:09:01;3.19;3.19;
62631;PMS5003;48703;51.248;-0.546;2023-08-06T09:12:04;3.60;3.34;
62631;PMS5003;48703;51.248;-0.546;2023-08-06T09:15:04;2.70;2.61;
62631;PMS5003;48703;51.248;-0.546;2023-08-06T09:18:09;3.91;3.69;
62631;PMS5003;48703;51.248;-0.546;2023-08-06T09:21:07;5.76;4.04;
62631;PMS5003;48703;51.248;-0.546;2023-08-06T09:24:08;3.26;3.04;
62631;PMS5003;48703;51.248;-0.546;2023-08-06T09:27:11;3.20;2.90;
62631;PMS5003;48703;51.248;-0.546;2023-08-06T09:30:11;3.83;2.74;
62631;PMS5003;48703;51.248;-0.546;2023-08-06T09:33:14;5.37;3.74;
62631;PMS5003;48703;51.248;-0.546;2023-08-06T09:36:14;3.23;3.23;
62631;PMS5003;48703;51.248;-0.546;2023-08-06T09:39:16;4.01;3.71;
62631;PMS5003;48703;51.248;-0.546;2023-08-06T09:42:17;4.74;3.36;
62631;PMS5003;48703;51.248;-0.546;2023-08-06T09:45:19;2.70;2.70;
62631;PMS5003;48703;51.248;-0.546;2023-08-06T09:48:20;2.64;1.79;
62631;PMS5003;48703;51.248;-0.546;2023-08-06T09:51:22;2.76;2.76;
62631;PMS5003;48703;51.248;-0.546;2023-08-06T09:54:23;3.31;2.80;
62631;PMS5003;48703;51.248;-0.546;2023-08-06T09:57:25;3.33;3.06;
62631;PMS5003;48703;51.248;-0.546;2023-08-06T10:00:26;3.29;3.03;
62631;PMS5003;48703;51.248;-0.546;2023-08-06T10:03:28;3.39;2.94;
62631;PMS5003;48703;51.248;-0.546;2023-08-06T10:06:29;2.63;2.63;
62631;PMS5003;48703;51.248;-0.546;2023-08-06T10:09:31;3.34;2.74;
62631;PMS5003;48703;51.248;-0.546;2023-08-06T10:12:34;3.73;3.07;
62631;PMS5003;48703;51.248;-0.546;2023-08-06T10:15:34;2.04;2.04;
62631;PMS5003;48703;51.248;-0.546;2023-08-06T10:18:35;2.90;2.27;
62631;PMS5003;48703;51.248;-0.546;2023-08-06T10:21:37;2.60;2.30;
62631;PMS5003;48703;51.248;-0.546;2023-08-06T10:24:46;3.47;2.61;
62631;PMS5003;48703;51.248;-0.546;2023-08-06T10:27:40;2.80;2.34;
62631;PMS5003;48703;51.248;-0.546;2023-08-06T10:30:42;2.77;2.69;
62631;PMS5003;48703;51.248;-0.546;2023-08-06T10:33:43;2.40;2.27;
62631;PMS5003;48703;51.248;-0.546;2023-08-06T10:36:44;2.47;2.47;
62631;PMS5003;48703;51.248;-0.546;2023-08-06T10:39:47;2.57;2.34;
62631;PMS5003;48703;51.248;-0.546;2023-08-06T10:42:47;2.10;2.10;
62631;PMS5003;48703;51.248;-0.546;2023-08-06T10:45:49;2.64;2.64;
62631;PMS5003;48703;51.248;-0.546;2023-08-06T10:48:50;2.91;2.74;
62631;PMS5003;48703;51.248;-0.546;2023-08-06T10:51:52;3.57;1.99;
62631;PMS5003;48703;51.248;-0.546;2023-08-06T10:54:53;3.10;2.37;
62631;PMS5003;48703;51.248;-0.546;2023-08-06T10:57:55;2.74;2.60;
62631;PMS5003;48703;51.248;-0.546;2023-08-06T11:00:56;2.66;2.36;
62631;PMS5003;48703;51.248;-0.546;2023-08-06T11:04:00;2.43;2.43;
62631;PMS5003;48703;51.248;-0.546;2023-08-06T11:06:59;1.39;1.13;
62631;PMS5003;48703;51.248;-0.546;2023-08-06T11:10:01;2.37;2.20;
62631;PMS5003;48703;51.248;-0.546;2023-08-06T11:13:02;3.57;3.30;
62631;PMS5003;48703;51.248;-0.546;2023-08-06T11:16:04;3.73;2.57;
62631;PMS5003;48703;51.248;-0.546;2023-08-06T11:19:07;2.54;2.54;
62631;PMS5003;48703;51.248;-0.546;2023-08-06T11:22:06;2.71;2.13;
62631;PMS5003;48703;51.248;-0.546;2023-08-06T11:25:08;2.79;2.44;
62631;PMS5003;48703;51.248;-0.546;2023-08-06T11:28:09;2.63;2.63;
62631;PMS5003;48703;51.248;-0.546;2023-08-06T11:31:18;3.03;3.03;
62631;PMS5003;48703;51.248;-0.546;2023-08-06T11:34:12;2.17;2.13;
62631;PMS5003;48703;51.248;-0.546;2023-08-06T11:37:14;2.73;2.13;
62631;PMS5003;48703;51.248;-0.546;2023-08-06T11:40:15;3.11;2.47;
62631;PMS5003;48703;51.248;-0.546;2023-08-06T11:43:17;2.43;2.43;
62631;PMS5003;48703;51.248;-0.546;2023-08-06T11:46:18;2.04;1.57;
62631;PMS5003;48703;51.248;-0.546;2023-08-06T11:49:20;2.93;2.60;
62631;PMS5003;48703;51.248;-0.546;2023-08-06T11:52:22;2.23;2.23;
62631;PMS5003;48703;51.248;-0.546;2023-08-06T11:55:23;2.97;2.46;
62631;PMS5003;48703;51.248;-0.546;2023-08-06T11:58:24;3.27;2.67;
62631;PMS5003;48703;51.248;-0.546;2023-08-06T12:01:25;2.09;2.09;
62631;PMS5003;48703;51.248;-0.546;2023-08-06T12:04:27;2.49;1.83;
62631;PMS5003;48703;51.248;-0.546;2023-08-06T12:07:29;1.77;1.77;
62631;PMS5003;48703;51.248;-0.546;2023-08-06T12:10:31;1.54;1.54;
62631;PMS5003;48703;51.248;-0.546;2023-08-06T12:13:31;2.31;1.84;
62631;PMS5003;48703;51.248;-0.546;2023-08-06T12:16:33;2.61;1.89;
62631;PMS5003;48703;51.248;-0.546;2023-08-06T12:19:34;2.39;2.39;
62631;PMS5003;48703;51.248;-0.546;2023-08-06T12:22:36;1.89;1.84;
62631;PMS5003;48703;51.248;-0.546;2023-08-06T12:25:37;1.64;1.39;
62631;PMS5003;48703;51.248;-0.546;2023-08-06T12:28:39;1.74;1.74;
62631;PMS5003;48703;51.248;-0.546;2023-08-06T12:31:40;1.69;1.69;
62631;PMS5003;48703;51.248;-0.546;2023-08-06T12:34:42;2.61;1.50;
62631;PMS5003;48703;51.248;-0.546;2023-08-06T12:37:43;2.49;1.93;
62631;PMS5003;48703;51.248;-0.546;2023-08-06T12:40:44;1.93;1.74;
62631;PMS5003;48703;51.248;-0.546;2023-08-06T12:43:46;2.76;1.54;
62631;PMS5003;48703;51.248;-0.546;2023-08-06T12:46:47;2.56;1.94;
62631;PMS5003;48703;51.248;-0.546;2023-08-06T12:49:49;2.04;2.04;
62631;PMS5003;48703;51.248;-0.546;2023-08-06T12:52:50;2.29;1.86;
62631;PMS5003;48703;51.248;-0.546;2023-08-06T12:55:52;1.99;1.71;
62631;PMS5003;48703;51.248;-0.546;2023-08-06T12:58:53;2.16;2.16;
62631;PMS5003;48703;51.248;-0.546;2023-08-06T13:01:54;2.31;2.31;
62631;PMS5003;48703;51.248;-0.546;2023-08-06T13:04:56;1.44;1.44;
62631;PMS5003;48703;51.248;-0.546;2023-08-06T13:07:57;1.57;1.57;
62631;PMS5003;48703;51.248;-0.546;2023-08-06T13:10:59;2.51;1.49;
62631;PMS5003;48703;51.248;-0.546;2023-08-06T13:14:03;2.30;1.53;
62631;PMS5003;48703;51.248;-0.546;2023-08-06T13:17:02;2.01;1.89;
62631;PMS5003;48703;51.248;-0.546;2023-08-06T13:20:04;2.07;2.07;
62631;PMS5003;48703;51.248;-0.546;2023-08-06T13:23:05;2.14;2.14;
62631;PMS5003;48703;51.248;-0.546;2023-08-06T13:26:06;1.87;1.87;
62631;PMS5003;48703;51.248;-0.546;2023-08-06T13:29:08;1.71;1.71;
62631;PMS5003;48703;51.248;-0.546;2023-08-06T13:32:09;1.90;1.90;
62631;PMS5003;48703;51.248;-0.546;2023-08-06T13:35:10;1.76;1.46;
62631;PMS5003;48703;51.248;-0.546;2023-08-06T13:38:12;2.06;1.27;
62631;PMS5003;48703;51.248;-0.546;2023-08-06T13:41:13;2.17;2.17;
62631;PMS5003;48703;51.248;-0.546;2023-08-06T13:44:15;2.34;1.83;
62631;PMS5003;48703;51.248;-0.546;2023-08-06T13:47:16;1.87;1.87;
62631;PMS5003;48703;51.248;-0.546;2023-08-06T13:50:18;1.66;1.56;
62631;PMS5003;48703;51.248;-0.546;2023-08-06T13:53:19;1.46;1.26;
62631;PMS5003;48703;51.248;-0.546;2023-08-06T13:56:20;2.27;2.04;
62631;PMS5003;48703;51.248;-0.546;2023-08-06T13:59:22;2.94;2.26;
62631;PMS5003;48703;51.248;-0.546;2023-08-06T14:02:23;2.73;2.43;
62631;PMS5003;48703;51.248;-0.546;2023-08-06T14:05:25;2.59;2.23;
62631;PMS5003;48703;51.248;-0.546;2023-08-06T14:08:26;3.40;3.40;
62631;PMS5003;48703;51.248;-0.546;2023-08-06T14:11:28;3.61;2.76;
62631;PMS5003;48703;51.248;-0.546;2023-08-06T14:14:29;2.44;2.44;
62631;PMS5003;48703;51.248;-0.546;2023-08-06T14:17:31;2.00;2.00;
62631;PMS5003;48703;51.248;-0.546;2023-08-06T14:20:32;3.49;3.14;
62631;PMS5003;48703;51.248;-0.546;2023-08-06T14:23:34;2.24;1.99;
62631;PMS5003;48703;51.248;-0.546;2023-08-06T14:26:35;2.57;2.39;
62631;PMS5003;48703;51.248;-0.546;2023-08-06T14:29:36;1.83;1.83;
62631;PMS5003;48703;51.248;-0.546;2023-08-06T14:32:38;3.01;2.76;
62631;PMS5003;48703;51.248;-0.546;2023-08-06T14:35:39;2.80;2.36;
62631;PMS5003;48703;51.248;-0.546;2023-08-06T14:38:41;2.57;2.03;
62631;PMS5003;48703;51.248;-0.546;2023-08-06T14:41:42;2.51;2.04;
62631;PMS5003;48703;51.248;-0.546;2023-08-06T14:44:44;1.61;1.47;
62631;PMS5003;48703;51.248;-0.546;2023-08-06T14:47:45;2.24;1.80;
62631;PMS5003;48703;51.248;-0.546;2023-08-06T14:50:47;2.76;2.74;
62631;PMS5003;48703;51.248;-0.546;2023-08-06T14:53:48;1.84;1.84;
62631;PMS5003;48703;51.248;-0.546;2023-08-06T14:56:50;2.17;1.51;
62631;PMS5003;48703;51.248;-0.546;2023-08-06T14:59:51;1.07;1.07;
62631;PMS5003;48703;51.248;-0.546;2023-08-06T15:02:53;1.90;1.34;
62631;PMS5003;48703;51.248;-0.546;2023-08-06T15:05:54;1.77;1.77;
62631;PMS5003;48703;51.248;-0.546;2023-08-06T15:08:55;2.53;1.93;
62631;PMS5003;48703;51.248;-0.546;2023-08-06T15:11:57;2.00;1.61;
62631;PMS5003;48703;51.248;-0.546;2023-08-06T15:14:59;2.53;1.84;
62631;PMS5003;48703;51.248;-0.546;2023-08-06T15:18:00;2.31;1.79;
62631;PMS5003;48703;51.248;-0.546;2023-08-06T15:21:01;2.77;2.77;
62631;PMS5003;48703;51.248;-0.546;2023-08-06T15:24:03;2.29;2.29;
62631;PMS5003;48703;51.248;-0.546;2023-08-06T15:27:04;3.20;2.84;
62631;PMS5003;48703;51.248;-0.546;2023-08-06T15:30:06;2.89;2.89;
62631;PMS5003;48703;51.248;-0.546;2023-08-06T15:33:07;3.11;2.21;
62631;PMS5003;48703;51.248;-0.546;2023-08-06T15:36:08;3.06;2.54;
62631;PMS5003;48703;51.248;-0.546;2023-08-06T15:39:10;2.00;1.87;
62631;PMS5003;48703;51.248;-0.546;2023-08-06T15:42:11;2.20;2.20;
62631;PMS5003;48703;51.248;-0.546;2023-08-06T15:45:13;1.10;1.10;
62631;PMS5003;48703;51.248;-0.546;2023-08-06T15:48:14;1.54;1.54;
62631;PMS5003;48703;51.248;-0.546;2023-08-06T15:51:16;1.53;1.14;
62631;PMS5003;48703;51.248;-0.546;2023-08-06T15:54:17;1.40;1.40;
62631;PMS5003;48703;51.248;-0.546;2023-08-06T15:57:18;1.76;1.76;
62631;PMS5003;48703;51.248;-0.546;2023-08-06T16:00:20;2.39;1.96;
62631;PMS5003;48703;51.248;-0.546;2023-08-06T16:03:21;2.53;2.10;
62631;PMS5003;48703;51.248;-0.546;2023-08-06T16:06:23;1.66;1.66;
62631;PMS5003;48703;51.248;-0.546;2023-08-06T16:09:24;0.71;0.63;
62631;PMS5003;48703;51.248;-0.546;2023-08-06T16:12:26;1.03;1.03;
62631;PMS5003;48703;51.248;-0.546;2023-08-06T16:15:27;1.14;1.14;
62631;PMS5003;48703;51.248;-0.546;2023-08-06T16:18:28;1.86;1.86;
62631;PMS5003;48703;51.248;-0.546;2023-08-06T16:21:30;1.73;1.47;
62631;PMS5003;48703;51.248;-0.546;2023-08-06T16:24:31;1.23;1.23;
62631;PMS5003;48703;51.248;-0.546;2023-08-06T16:27:33;1.66;1.44;
62631;PMS5003;48703;51.248;-0.546;2023-08-06T16:30:34;0.86;0.86;
62631;PMS5003;48703;51.248;-0.546;2023-08-06T16:33:35;0.31;0.24;
62631;PMS5003;48703;51.248;-0.546;2023-08-06T16:36:37;1.34;0.59;
62631;PMS5003;48703;51.248;-0.546;2023-08-06T16:39:38;0.53;0.53;
62631;PMS5003;48703;51.248;-0.546;2023-08-06T16:42:40;0.01;0.01;
62631;PMS5003;48703;51.248;-0.546;2023-08-06T16:45:41;0.37;0.37;
62631;PMS5003;48703;51.248;-0.546;2023-08-06T16:48:43;0.39;0.39;
62631;PMS5003;48703;51.248;-0.546;2023-08-06T16:51:44;1.60;0.64;
62631;PMS5003;48703;51.248;-0.546;2023-08-06T16:54:45;0.73;0.73;
62631;PMS5003;48703;51.248;-0.546;2023-08-06T16:57:47;0.61;0.61;
62631;PMS5003;48703;51.248;-0.546;2023-08-06T17:00:49;1.59;1.59;
62631;PMS5003;48703;51.248;-0.546;2023-08-06T17:03:50;1.57;0.96;
62631;PMS5003;48703;51.248;-0.546;2023-08-06T17:06:51;1.10;1.10;
62631;PMS5003;48703;51.248;-0.546;2023-08-06T17:09:53;0.99;0.86;
62631;PMS5003;48703;51.248;-0.546;2023-08-06T17:12:54;1.00;1.00;
62631;PMS5003;48703;51.248;-0.546;2023-08-06T17:15:56;0.79;0.79;
62631;PMS5003;48703;51.248;-0.546;2023-08-06T17:18:57;2.04;1.61;
62631;PMS5003;48703;51.248;-0.546;2023-08-06T17:21:58;1.56;1.04;
62631;PMS5003;48703;51.248;-0.546;2023-08-06T17:25:00;1.83;1.73;
62631;PMS5003;48703;51.248;-0.546;2023-08-06T17:28:02;1.91;1.36;
62631;PMS5003;48703;51.248;-0.546;2023-08-06T17:31:03;2.31;1.93;
62631;PMS5003;48703;51.248;-0.546;2023-08-06T17:34:04;1.76;1.54;
62631;PMS5003;48703;51.248;-0.546;2023-08-06T17:37:05;1.43;1.34;
62631;PMS5003;48703;51.248;-0.546;2023-08-06T17:40:08;1.56;1.56;
62631;PMS5003;48703;51.248;-0.546;2023-08-06T17:43:08;2.17;1.57;
62631;PMS5003;48703;51.248;-0.546;2023-08-06T17:46:10;2.07;1.60;
62631;PMS5003;48703;51.248;-0.546;2023-08-06T17:49:11;1.43;1.43;
62631;PMS5003;48703;51.248;-0.546;2023-08-06T17:52:13;1.06;1.06;
62631;PMS5003;48703;51.248;-0.546;2023-08-06T17:55:14;1.01;1.01;
62631;PMS5003;48703;51.248;-0.546;2023-08-06T17:58:15;0.99;0.61;
62631;PMS5003;48703;51.248;-0.546;2023-08-06T18:01:17;0.77;0.77;
62631;PMS5003;48703;51.248;-0.546;2023-08-06T18:04:18;1.36;1.36;
62631;PMS5003;48703;51.248;-0.546;2023-08-06T18:07:20;2.33;1.64;
62631;PMS5003;48703;51.248;-0.546;2023-08-06T18:10:21;1.23;1.14;
62631;PMS5003;48703;51.248;-0.546;2023-08-06T18:13:23;1.93;1.79;
62631;PMS5003;48703;51.248;-0.546;2023-08-06T18:16:24;3.32;2.72;
62631;PMS5003;48703;51.248;-0.546;2023-08-06T18:19:25;2.37;2.03;
62631;PMS5003;48703;51.248;-0.546;2023-08-06T18:22:27;2.89;1.64;
62631;PMS5003;48703;51.248;-0.546;2023-08-06T18:25:28;1.56;1.17;
62631;PMS5003;48703;51.248;-0.546;2023-08-06T18:28:29;1.67;1.24;
62631;PMS5003;48703;51.248;-0.546;2023-08-06T18:31:31;1.57;1.57;